sensor_id;sensor_type;location;lat;lon;timestamp;pressure;altitude;pressure_sealevel;temperature;humidity
3812;BME280;1921;49.368;11.068;2022-12-15T00:01:18;96448.66;;;-1.39;85.51
3812;BME280;1921;49.368;11.068;2022-12-15T00:04:03;96476.13;;;-1.21;86.77
3812;BME280;1921;49.368;11.068;2022-12-15T00:06:47;96473.34;;;-1.58;85.68
3812;BME280;1921;49.368;11.068;2022-12-15T00:09:31;96424.09;;;-1.70;85.85
3812;BME280;1921;49.368;11.068;2022-12-15T00:12:15;96455.38;;;-1.38;85.89
3812;BME280;1921;49.368;11.068;2022-12-15T00:14:59;96467.38;;;-1.19;86.20
3812;BME280;1921;49.368;11.068;2022-12-15T00:17:43;96469.53;;;-1.14;87.21
3812;BME280;1921;49.368;11.068;2022-12-15T00:20:27;96473.59;;;-1.02;85.92
3812;BME280;1921;49.368;11.068;2022-12-15T00:23:12;96448.25;;;-1.24;85.95
3812;BME280;1921;49.368;11.068;2022-12-15T00:25:57;96459.41;;;-1.45;84.25
3812;BME280;1921;49.368;11.068;2022-12-15T00:28:41;96456.41;;;-1.59;85.17
3812;BME280;1921;49.368;11.068;2022-12-15T00:31:26;96471.41;;;-1.36;85.71
3812;BME280;1921;49.368;11.068;2022-12-15T00:34:10;96347.81;;;-2.25;85.08
3812;BME280;1921;49.368;11.068;2022-12-15T00:36:55;96472.59;;;-1.40;85.51
3812;BME280;1921;49.368;11.068;2022-12-15T00:39:39;96443.63;;;-1.50;84.76
3812;BME280;1921;49.368;11.068;2022-12-15T00:42:06;96484.09;;;-1.15;85.59
3812;BME280;1921;49.368;11.068;2022-12-15T00:44:32;96428.19;;;-1.48;85.92
3812;BME280;1921;49.368;11.068;2022-12-15T00:46:58;96482.88;;;-1.11;86.87
3812;BME280;1921;49.368;11.068;2022-12-15T00:49:29;96383.75;;;-1.67;87.57
3812;BME280;1921;49.368;11.068;2022-12-15T00:52:16;96478.31;;;-0.97;87.27
3812;BME280;1921;49.368;11.068;2022-12-15T00:55:01;96469.97;;;-0.99;87.39
3812;BME280;1921;49.368;11.068;2022-12-15T00:57:45;96489.22;;;-0.76;87.64
3812;BME280;1921;49.368;11.068;2022-12-15T01:00:30;96500.28;;;-0.66;87.10
3812;BME280;1921;49.368;11.068;2022-12-15T01:03:20;96479.66;;;-0.84;87.11
3812;BME280;1921;49.368;11.068;2022-12-15T01:06:12;96448.56;;;-1.08;87.26
3812;BME280;1921;49.368;11.068;2022-12-15T01:08:57;96376.22;;;-1.58;85.48
3812;BME280;1921;49.368;11.068;2022-12-15T01:11:43;96494.78;;;-0.80;86.16
3812;BME280;1921;49.368;11.068;2022-12-15T01:14:28;96486.69;;;-0.86;86.00
3812;BME280;1921;49.368;11.068;2022-12-15T01:17:13;96550.41;;;-0.63;85.86
3812;BME280;1921;49.368;11.068;2022-12-15T01:19:58;96505.00;;;-0.90;86.43
3812;BME280;1921;49.368;11.068;2022-12-15T01:22:59;96526.66;;;-0.94;85.76
3812;BME280;1921;49.368;11.068;2022-12-15T01:25:25;96406.19;;;-1.70;86.07
3812;BME280;1921;49.368;11.068;2022-12-15T01:27:52;96554.03;;;-0.85;87.02
3812;BME280;1921;49.368;11.068;2022-12-15T01:30:22;96525.28;;;-1.08;86.51
3812;BME280;1921;49.368;11.068;2022-12-15T01:32:48;96501.44;;;-1.18;86.40
3812;BME280;1921;49.368;11.068;2022-12-15T01:35:14;96571.25;;;-0.87;86.14
3812;BME280;1921;49.368;11.068;2022-12-15T01:37:40;96551.00;;;-1.00;86.50
3812;BME280;1921;49.368;11.068;2022-12-15T01:40:11;96589.22;;;-0.68;86.78
3812;BME280;1921;49.368;11.068;2022-12-15T01:42:56;96529.34;;;-1.05;86.71
3812;BME280;1921;49.368;11.068;2022-12-15T01:48:04;96518.16;;;-0.95;87.13
3812;BME280;1921;49.368;11.068;2022-12-15T01:50:40;96564.81;;;-0.72;86.42
3812;BME280;1921;49.368;11.068;2022-12-15T01:53:08;96490.00;;;-1.24;86.02
3812;BME280;1921;49.368;11.068;2022-12-15T01:55:34;96513.06;;;-1.04;87.09
3812;BME280;1921;49.368;11.068;2022-12-15T01:58:04;96569.94;;;-0.72;87.22
3812;BME280;1921;49.368;11.068;2022-12-15T02:04:12;96616.69;;;-0.60;86.51
3812;BME280;1921;49.368;11.068;2022-12-15T02:06:39;96587.44;;;-0.87;86.51
3812;BME280;1921;49.368;11.068;2022-12-15T02:09:05;96624.09;;;-0.57;87.15
3812;BME280;1921;49.368;11.068;2022-12-15T02:15:19;96614.53;;;-0.65;86.69
3812;BME280;1921;49.368;11.068;2022-12-15T02:32:25;96567.34;;;-1.41;88.09
3812;BME280;1921;49.368;11.068;2022-12-15T02:35:05;96569.25;;;-1.33;87.98
3812;BME280;1921;49.368;11.068;2022-12-15T02:37:35;96622.50;;;-1.08;87.74
3812;BME280;1921;49.368;11.068;2022-12-15T02:40:04;96620.75;;;-1.08;87.82
3812;BME280;1921;49.368;11.068;2022-12-15T02:42:32;96543.59;;;-1.53;87.78
3812;BME280;1921;49.368;11.068;2022-12-15T02:45:15;96566.75;;;-1.45;88.65
3812;BME280;1921;49.368;11.068;2022-12-15T02:59:06;96633.75;;;-0.90;89.42
3812;BME280;1921;49.368;11.068;2022-12-15T03:02:01;96584.06;;;-1.27;88.71
3812;BME280;1921;49.368;11.068;2022-12-15T03:04:30;96600.13;;;-1.16;89.49
3812;BME280;1921;49.368;11.068;2022-12-15T03:07:02;96646.66;;;-0.91;88.52
3812;BME280;1921;49.368;11.068;2022-12-15T03:09:31;96605.63;;;-1.20;88.47
3812;BME280;1921;49.368;11.068;2022-12-15T03:11:58;96640.31;;;-0.97;88.97
3812;BME280;1921;49.368;11.068;2022-12-15T03:14:24;96642.59;;;-0.94;88.72
3812;BME280;1921;49.368;11.068;2022-12-15T03:16:51;96650.31;;;-0.84;89.42
3812;BME280;1921;49.368;11.068;2022-12-15T03:19:18;96624.03;;;-0.96;89.63
3812;BME280;1921;49.368;11.068;2022-12-15T03:21:44;96635.88;;;-0.95;89.03
3812;BME280;1921;49.368;11.068;2022-12-15T03:24:09;96586.75;;;-1.29;87.47
3812;BME280;1921;49.368;11.068;2022-12-15T03:26:35;96665.09;;;-0.97;87.27
3812;BME280;1921;49.368;11.068;2022-12-15T03:29:01;96615.53;;;-1.37;87.51
3812;BME280;1921;49.368;11.068;2022-12-15T03:31:27;96578.31;;;-1.50;87.58
3812;BME280;1921;49.368;11.068;2022-12-15T03:33:53;96603.66;;;-1.38;88.10
3812;BME280;1921;49.368;11.068;2022-12-15T03:36:20;96646.81;;;-0.93;88.75
3812;BME280;1921;49.368;11.068;2022-12-15T03:38:47;96649.94;;;-0.79;88.48
3812;BME280;1921;49.368;11.068;2022-12-15T03:41:13;96614.88;;;-0.98;89.16
3812;BME280;1921;49.368;11.068;2022-12-15T03:43:39;96633.31;;;-0.95;86.99
3812;BME280;1921;49.368;11.068;2022-12-15T03:46:05;96663.16;;;-0.74;87.62
3812;BME280;1921;49.368;11.068;2022-12-15T03:48:31;96659.66;;;-0.73;87.57
3812;BME280;1921;49.368;11.068;2022-12-15T03:50:56;96587.00;;;-1.32;86.86
3812;BME280;1921;49.368;11.068;2022-12-15T03:53:23;96673.50;;;-0.76;87.47
3812;BME280;1921;49.368;11.068;2022-12-15T03:55:49;96616.94;;;-1.13;87.49
3812;BME280;1921;49.368;11.068;2022-12-15T03:58:15;96578.22;;;-1.39;87.78
3812;BME280;1921;49.368;11.068;2022-12-15T04:00:40;96618.16;;;-1.17;88.55
3812;BME280;1921;49.368;11.068;2022-12-15T04:03:06;96609.91;;;-1.30;87.70
3812;BME280;1921;49.368;11.068;2022-12-15T04:05:33;96631.47;;;-1.23;86.02
3812;BME280;1921;49.368;11.068;2022-12-15T04:08:00;96627.31;;;-1.45;86.23
3812;BME280;1921;49.368;11.068;2022-12-15T04:10:30;96508.25;;;-2.30;86.70
3812;BME280;1921;49.368;11.068;2022-12-15T04:13:07;96640.28;;;-1.37;87.64
3812;BME280;1921;49.368;11.068;2022-12-15T04:15:35;96659.72;;;-1.25;87.82
3812;BME280;1921;49.368;11.068;2022-12-15T04:18:04;96671.47;;;-1.13;88.37
3812;BME280;1921;49.368;11.068;2022-12-15T04:20:30;96646.50;;;-1.30;88.51
3812;BME280;1921;49.368;11.068;2022-12-15T04:22:57;96629.00;;;-1.34;88.37
3812;BME280;1921;49.368;11.068;2022-12-15T04:25:25;96675.16;;;-1.05;87.65
3812;BME280;1921;49.368;11.068;2022-12-15T04:28:10;96670.16;;;-1.07;88.19
3812;BME280;1921;49.368;11.068;2022-12-15T04:31:13;96652.59;;;-1.21;88.22
3812;BME280;1921;49.368;11.068;2022-12-15T04:34:03;96690.53;;;-0.96;88.53
3812;BME280;1921;49.368;11.068;2022-12-15T04:36:51;96659.34;;;-1.20;87.83
3812;BME280;1921;49.368;11.068;2022-12-15T04:39:40;96639.88;;;-1.42;87.20
3812;BME280;1921;49.368;11.068;2022-12-15T04:42:25;96703.97;;;-1.03;87.32
3812;BME280;1921;49.368;11.068;2022-12-15T04:45:11;96657.88;;;-1.65;86.46
3812;BME280;1921;49.368;11.068;2022-12-15T04:47:58;96650.72;;;-2.24;89.31
3812;BME280;1921;49.368;11.068;2022-12-15T04:50:42;96644.00;;;-2.25;90.09
3812;BME280;1921;49.368;11.068;2022-12-15T04:53:26;96651.56;;;-2.02;89.37
3812;BME280;1921;49.368;11.068;2022-12-15T04:56:13;96627.34;;;-2.08;89.22
3812;BME280;1921;49.368;11.068;2022-12-15T04:58:58;96690.03;;;-1.62;89.06
3812;BME280;1921;49.368;11.068;2022-12-15T05:01:43;96645.66;;;-1.82;89.08
3812;BME280;1921;49.368;11.068;2022-12-15T05:04:27;96675.28;;;-1.58;89.14
3812;BME280;1921;49.368;11.068;2022-12-15T05:07:12;96702.63;;;-1.49;89.44
3812;BME280;1921;49.368;11.068;2022-12-15T05:09:56;96640.38;;;-1.69;90.17
3812;BME280;1921;49.368;11.068;2022-12-15T05:12:40;96661.94;;;-1.41;90.16
3812;BME280;1921;49.368;11.068;2022-12-15T05:15:25;96670.72;;;-1.34;90.83
3812;BME280;1921;49.368;11.068;2022-12-15T05:18:09;96694.78;;;-1.16;90.53
3812;BME280;1921;49.368;11.068;2022-12-15T05:20:53;96695.91;;;-1.50;87.78
3812;BME280;1921;49.368;11.068;2022-12-15T05:23:37;96689.97;;;-1.51;88.45
3812;BME280;1921;49.368;11.068;2022-12-15T05:26:21;96739.44;;;-1.20;88.69
3812;BME280;1921;49.368;11.068;2022-12-15T05:29:05;96727.94;;;-1.25;88.42
3812;BME280;1921;49.368;11.068;2022-12-15T05:31:50;96756.19;;;-1.06;88.47
3812;BME280;1921;49.368;11.068;2022-12-15T05:34:19;96744.63;;;-1.10;88.22
3812;BME280;1921;49.368;11.068;2022-12-15T05:36:45;96757.03;;;-1.05;88.53
3812;BME280;1921;49.368;11.068;2022-12-15T05:39:11;96717.31;;;-1.30;88.45
3812;BME280;1921;49.368;11.068;2022-12-15T05:41:37;96725.84;;;-1.20;89.10
3812;BME280;1921;49.368;11.068;2022-12-15T05:44:03;96756.91;;;-1.04;89.03
3812;BME280;1921;49.368;11.068;2022-12-15T05:46:28;96730.50;;;-1.25;88.80
3812;BME280;1921;49.368;11.068;2022-12-15T05:48:54;96736.22;;;-1.12;88.98
3812;BME280;1921;49.368;11.068;2022-12-15T05:51:20;96764.25;;;-0.90;89.04
3812;BME280;1921;49.368;11.068;2022-12-15T05:53:46;96720.59;;;-1.19;89.45
3812;BME280;1921;49.368;11.068;2022-12-15T05:56:13;96696.91;;;-1.42;86.87
3812;BME280;1921;49.368;11.068;2022-12-15T05:58:40;96657.53;;;-2.13;88.38
3812;BME280;1921;49.368;11.068;2022-12-15T06:01:12;96770.22;;;-1.63;88.63
3812;BME280;1921;49.368;11.068;2022-12-15T06:03:39;96714.59;;;-2.35;91.28
3812;BME280;1921;49.368;11.068;2022-12-15T06:06:07;96694.78;;;-2.54;92.01
3812;BME280;1921;49.368;11.068;2022-12-15T06:08:35;96716.34;;;-2.35;91.62
3812;BME280;1921;49.368;11.068;2022-12-15T06:11:02;96706.06;;;-2.24;91.84
3812;BME280;1921;49.368;11.068;2022-12-15T06:13:30;96667.44;;;-2.31;90.95
3812;BME280;1921;49.368;11.068;2022-12-15T06:16:18;96741.91;;;-1.71;91.14
3812;BME280;1921;49.368;11.068;2022-12-15T06:18:52;96743.97;;;-1.65;90.86
3812;BME280;1921;49.368;11.068;2022-12-15T06:21:21;96802.69;;;-1.22;90.92
3812;BME280;1921;49.368;11.068;2022-12-15T06:23:50;96773.31;;;-1.27;91.15
3812;BME280;1921;49.368;11.068;2022-12-15T06:28:49;96748.59;;;-1.38;90.45
3812;BME280;1921;49.368;11.068;2022-12-15T06:31:17;96785.78;;;-1.13;90.11
3812;BME280;1921;49.368;11.068;2022-12-15T06:33:44;96739.31;;;-1.39;89.30
3812;BME280;1921;49.368;11.068;2022-12-15T06:36:13;96745.44;;;-1.30;88.43
3812;BME280;1921;49.368;11.068;2022-12-15T06:38:40;96544.06;;;-2.73;87.71
3812;BME280;1921;49.368;11.068;2022-12-15T06:41:13;96777.88;;;-1.95;90.24
3812;BME280;1921;49.368;11.068;2022-12-15T06:43:40;96743.88;;;-2.07;90.18
3812;BME280;1921;49.368;11.068;2022-12-15T06:46:06;96789.53;;;-1.70;90.18
3812;BME280;1921;49.368;11.068;2022-12-15T06:48:32;96756.31;;;-1.70;90.71
3812;BME280;1921;49.368;11.068;2022-12-15T06:51:04;96791.03;;;-1.36;91.01
3812;BME280;1921;49.368;11.068;2022-12-15T06:53:30;96807.53;;;-1.19;90.71
3812;BME280;1921;49.368;11.068;2022-12-15T06:56:01;96757.06;;;-1.38;91.00
3812;BME280;1921;49.368;11.068;2022-12-15T06:58:27;96726.34;;;-1.47;90.51
3812;BME280;1921;49.368;11.068;2022-12-15T07:00:53;96713.97;;;-1.84;89.79
3812;BME280;1921;49.368;11.068;2022-12-15T07:03:19;96738.88;;;-1.65;90.03
3812;BME280;1921;49.368;11.068;2022-12-15T07:05:45;96786.72;;;-1.35;89.44
3812;BME280;1921;49.368;11.068;2022-12-15T07:08:14;96793.31;;;-1.32;89.64
3812;BME280;1921;49.368;11.068;2022-12-15T07:10:43;96746.94;;;-1.49;89.43
3812;BME280;1921;49.368;11.068;2022-12-15T07:13:11;96751.34;;;-1.51;89.51
3812;BME280;1921;49.368;11.068;2022-12-15T07:15:38;96715.88;;;-1.65;89.42
3812;BME280;1921;49.368;11.068;2022-12-15T07:18:05;96833.66;;;-1.04;90.33
3812;BME280;1921;49.368;11.068;2022-12-15T07:20:32;96782.97;;;-1.31;90.57
3812;BME280;1921;49.368;11.068;2022-12-15T07:22:58;96813.38;;;-1.17;90.35
3812;BME280;1921;49.368;11.068;2022-12-15T07:25:25;96812.66;;;-1.19;90.33
3812;BME280;1921;49.368;11.068;2022-12-15T07:27:51;96781.91;;;-1.28;90.77
3812;BME280;1921;49.368;11.068;2022-12-15T07:30:17;96775.09;;;-1.39;90.40
3812;BME280;1921;49.368;11.068;2022-12-15T07:32:43;96788.38;;;-1.24;90.29
3812;BME280;1921;49.368;11.068;2022-12-15T07:35:10;96787.34;;;-1.22;89.12
3812;BME280;1921;49.368;11.068;2022-12-15T07:37:37;96834.09;;;-0.99;89.03
3812;BME280;1921;49.368;11.068;2022-12-15T07:40:04;96780.81;;;-1.36;89.57
3812;BME280;1921;49.368;11.068;2022-12-15T07:42:31;96694.81;;;-1.90;89.43
3812;BME280;1921;49.368;11.068;2022-12-15T07:44:59;96781.78;;;-1.48;88.47
3812;BME280;1921;49.368;11.068;2022-12-15T07:47:24;96740.31;;;-2.15;89.73
3812;BME280;1921;49.368;11.068;2022-12-15T07:49:55;96782.16;;;-1.96;91.35
3812;BME280;1921;49.368;11.068;2022-12-15T07:52:21;96627.22;;;-2.82;90.45
3812;BME280;1921;49.368;11.068;2022-12-15T07:54:47;96860.09;;;-1.15;90.87
3812;BME280;1921;49.368;11.068;2022-12-15T07:57:13;96829.16;;;-1.12;90.53
3812;BME280;1921;49.368;11.068;2022-12-15T07:59:39;96789.84;;;-1.11;90.12
3812;BME280;1921;49.368;11.068;2022-12-15T08:02:05;96784.91;;;-1.02;89.91
3812;BME280;1921;49.368;11.068;2022-12-15T08:04:31;96763.97;;;-1.17;89.61
3812;BME280;1921;49.368;11.068;2022-12-15T08:07:00;96789.34;;;-1.04;87.18
3812;BME280;1921;49.368;11.068;2022-12-15T08:09:25;96803.03;;;-1.47;87.52
3812;BME280;1921;49.368;11.068;2022-12-15T08:11:51;96845.59;;;-1.57;88.96
3812;BME280;1921;49.368;11.068;2022-12-15T08:14:17;96806.25;;;-2.09;91.72
3812;BME280;1921;49.368;11.068;2022-12-15T08:16:44;96798.94;;;-2.14;93.66
3812;BME280;1921;49.368;11.068;2022-12-15T08:19:12;96844.81;;;-1.69;92.53
3812;BME280;1921;49.368;11.068;2022-12-15T08:21:44;96788.22;;;-1.97;92.09
3812;BME280;1921;49.368;11.068;2022-12-15T08:24:11;96831.03;;;-1.46;91.84
3812;BME280;1921;49.368;11.068;2022-12-15T08:26:39;96851.69;;;-1.05;91.21
3812;BME280;1921;49.368;11.068;2022-12-15T08:29:07;96824.03;;;-1.44;87.21
3812;BME280;1921;49.368;11.068;2022-12-15T08:31:34;96859.47;;;-1.07;89.04
3812;BME280;1921;49.368;11.068;2022-12-15T08:34:01;96835.88;;;-0.90;88.80
3812;BME280;1921;49.368;11.068;2022-12-15T08:36:27;96832.56;;;-0.60;88.75
3812;BME280;1921;49.368;11.068;2022-12-15T08:38:56;96846.16;;;-1.43;87.13
3812;BME280;1921;49.368;11.068;2022-12-15T08:41:25;96842.88;;;-1.88;91.01
3812;BME280;1921;49.368;11.068;2022-12-15T08:43:53;96849.53;;;-1.97;91.95
3812;BME280;1921;49.368;11.068;2022-12-15T08:46:21;96830.72;;;-2.07;91.79
3812;BME280;1921;49.368;11.068;2022-12-15T08:48:48;96861.63;;;-2.21;93.01
3812;BME280;1921;49.368;11.068;2022-12-15T08:51:14;96865.41;;;-2.49;94.98
3812;BME280;1921;49.368;11.068;2022-12-15T08:53:40;96864.16;;;-2.44;96.44
3812;BME280;1921;49.368;11.068;2022-12-15T08:56:13;96893.63;;;-1.83;94.95
3812;BME280;1921;49.368;11.068;2022-12-15T08:58:42;96866.78;;;-1.67;92.64
3812;BME280;1921;49.368;11.068;2022-12-15T09:01:11;96856.97;;;-1.50;90.45
3812;BME280;1921;49.368;11.068;2022-12-15T09:03:38;96860.06;;;-1.79;90.68
3812;BME280;1921;49.368;11.068;2022-12-15T09:06:07;96922.38;;;-1.37;90.37
3812;BME280;1921;49.368;11.068;2022-12-15T09:08:35;96876.00;;;-1.98;91.60
3812;BME280;1921;49.368;11.068;2022-12-15T09:11:02;96879.09;;;-1.60;90.59
3812;BME280;1921;49.368;11.068;2022-12-15T09:13:31;96882.63;;;-1.41;90.00
3812;BME280;1921;49.368;11.068;2022-12-15T09:18:23;96923.22;;;-0.62;85.53
3812;BME280;1921;49.368;11.068;2022-12-15T09:20:49;96850.75;;;-0.84;85.22
3812;BME280;1921;49.368;11.068;2022-12-15T09:23:14;96884.84;;;-0.32;83.78
3812;BME280;1921;49.368;11.068;2022-12-15T09:25:40;96895.69;;;0.12;84.28
3812;BME280;1921;49.368;11.068;2022-12-15T09:28:06;96859.13;;;0.01;79.10
3812;BME280;1921;49.368;11.068;2022-12-15T09:30:31;96882.28;;;-0.32;81.62
3812;BME280;1921;49.368;11.068;2022-12-15T09:32:57;96896.81;;;0.29;81.18
3812;BME280;1921;49.368;11.068;2022-12-15T09:35:26;96864.19;;;-0.09;78.68
3812;BME280;1921;49.368;11.068;2022-12-15T09:37:52;96839.09;;;-0.97;82.09
3812;BME280;1921;49.368;11.068;2022-12-15T09:40:18;96855.38;;;-0.98;84.87
3812;BME280;1921;49.368;11.068;2022-12-15T09:42:53;96859.91;;;-0.60;83.20
3812;BME280;1921;49.368;11.068;2022-12-15T09:45:38;96857.19;;;-1.42;87.07
3812;BME280;1921;49.368;11.068;2022-12-15T09:48:11;96913.72;;;-0.92;88.47
3812;BME280;1921;49.368;11.068;2022-12-15T09:50:40;96870.53;;;-0.86;85.96
3812;BME280;1921;49.368;11.068;2022-12-15T09:53:12;96918.03;;;-0.93;86.87
3812;BME280;1921;49.368;11.068;2022-12-15T09:55:38;96819.66;;;-1.21;86.84
3812;BME280;1921;49.368;11.068;2022-12-15T09:58:42;96887.03;;;0.04;84.00
3812;BME280;1921;49.368;11.068;2022-12-15T10:01:40;96897.81;;;0.47;81.98
3812;BME280;1921;49.368;11.068;2022-12-15T10:06:54;96897.19;;;0.84;77.26
3812;BME280;1921;49.368;11.068;2022-12-15T10:09:26;96847.59;;;0.45;77.62
3812;BME280;1921;49.368;11.068;2022-12-15T10:12:13;96883.84;;;0.21;80.43
3812;BME280;1921;49.368;11.068;2022-12-15T10:14:49;96840.44;;;0.68;79.23
3812;BME280;1921;49.368;11.068;2022-12-15T10:20:03;96893.53;;;1.45;74.00
3812;BME280;1921;49.368;11.068;2022-12-15T10:22:35;96827.88;;;0.26;74.97
3812;BME280;1921;49.368;11.068;2022-12-15T10:25:21;96888.50;;;-0.04;81.46
3812;BME280;1921;49.368;11.068;2022-12-15T10:31:18;96854.94;;;-0.62;83.78
3812;BME280;1921;49.368;11.068;2022-12-15T10:34:03;96901.13;;;-0.63;84.92
3812;BME280;1921;49.368;11.068;2022-12-15T10:36:33;96841.38;;;-0.73;87.05
3812;BME280;1921;49.368;11.068;2022-12-15T10:38:59;96801.94;;;-0.92;84.35
3812;BME280;1921;49.368;11.068;2022-12-15T10:41:31;96815.06;;;-0.85;85.22
3812;BME280;1921;49.368;11.068;2022-12-15T10:43:58;96808.41;;;-0.88;85.59
3812;BME280;1921;49.368;11.068;2022-12-15T10:46:27;96770.97;;;-1.51;89.54
3812;BME280;1921;49.368;11.068;2022-12-15T10:49:21;96872.75;;;-0.30;85.91
3812;BME280;1921;49.368;11.068;2022-12-15T10:51:57;96803.00;;;-1.15;86.26
3812;BME280;1921;49.368;11.068;2022-12-15T10:54:43;96816.88;;;-1.50;89.02
3812;BME280;1921;49.368;11.068;2022-12-15T10:59:41;96793.03;;;-1.50;89.80
3812;BME280;1921;49.368;11.068;2022-12-15T11:05:14;96841.38;;;-0.94;85.73
3812;BME280;1921;49.368;11.068;2022-12-15T11:10:25;96795.69;;;-0.78;84.77
3812;BME280;1921;49.368;11.068;2022-12-15T11:21:19;96839.16;;;-1.84;90.53
3812;BME280;1921;49.368;11.068;2022-12-15T11:24:19;96776.66;;;-1.48;88.52
3812;BME280;1921;49.368;11.068;2022-12-15T11:27:10;96798.31;;;-0.68;86.20
3812;BME280;1921;49.368;11.068;2022-12-15T11:30:14;96840.41;;;0.19;82.12
3812;BME280;1921;49.368;11.068;2022-12-15T11:32:47;96771.38;;;-0.22;78.50
3812;BME280;1921;49.368;11.068;2022-12-15T11:35:42;96803.81;;;-0.42;78.39
3812;BME280;1921;49.368;11.068;2022-12-15T11:38:42;96803.91;;;-0.44;80.58
3812;BME280;1921;49.368;11.068;2022-12-15T11:41:31;96829.94;;;-0.08;79.38
3812;BME280;1921;49.368;11.068;2022-12-15T11:44:28;96740.78;;;-0.64;80.34
3812;BME280;1921;49.368;11.068;2022-12-15T11:47:48;96819.22;;;-1.26;84.62
3812;BME280;1921;49.368;11.068;2022-12-15T11:50:35;96762.00;;;-1.46;85.47
3812;BME280;1921;49.368;11.068;2022-12-15T11:53:38;96838.78;;;-1.04;83.73
3812;BME280;1921;49.368;11.068;2022-12-15T11:56:51;96841.25;;;-1.46;84.89
3812;BME280;1921;49.368;11.068;2022-12-15T12:06:22;96797.75;;;-1.14;85.45
3812;BME280;1921;49.368;11.068;2022-12-15T12:09:28;96797.25;;;-1.28;86.19
3812;BME280;1921;49.368;11.068;2022-12-15T12:12:24;96741.88;;;-1.60;85.13
3812;BME280;1921;49.368;11.068;2022-12-15T12:18:05;96784.34;;;-1.06;82.96
3812;BME280;1921;49.368;11.068;2022-12-15T12:20:48;96784.34;;;-1.27;86.36
3812;BME280;1921;49.368;11.068;2022-12-15T12:23:30;96802.38;;;-1.28;86.52
3812;BME280;1921;49.368;11.068;2022-12-15T12:29:15;96823.88;;;-0.47;82.27
3812;BME280;1921;49.368;11.068;2022-12-15T12:34:40;96804.81;;;0.26;81.87
3812;BME280;1921;49.368;11.068;2022-12-15T12:39:47;96752.16;;;-0.47;81.30
3812;BME280;1921;49.368;11.068;2022-12-15T12:42:36;96764.81;;;0.04;80.08
3812;BME280;1921;49.368;11.068;2022-12-15T12:45:05;96746.09;;;-0.87;82.08
3812;BME280;1921;49.368;11.068;2022-12-15T12:47:36;96730.88;;;-1.51;86.43
3812;BME280;1921;49.368;11.068;2022-12-15T12:50:18;96785.72;;;-1.23;89.83
3812;BME280;1921;49.368;11.068;2022-12-15T12:52:51;96795.13;;;-1.44;90.90
3812;BME280;1921;49.368;11.068;2022-12-15T12:55:39;96764.25;;;-1.31;90.49
3812;BME280;1921;49.368;11.068;2022-12-15T12:58:38;96779.16;;;-0.74;86.01
3812;BME280;1921;49.368;11.068;2022-12-15T13:01:44;96713.34;;;-0.93;85.55
3812;BME280;1921;49.368;11.068;2022-12-15T13:04:36;96745.25;;;-0.87;85.68
3812;BME280;1921;49.368;11.068;2022-12-15T13:07:34;96705.47;;;-1.01;86.07
3812;BME280;1921;49.368;11.068;2022-12-15T13:12:48;96671.31;;;-1.21;86.59
3812;BME280;1921;49.368;11.068;2022-12-15T13:17:51;96724.97;;;-1.30;89.66
3812;BME280;1921;49.368;11.068;2022-12-15T13:20:30;96717.66;;;-1.56;91.42
3812;BME280;1921;49.368;11.068;2022-12-15T13:31:23;96683.25;;;-1.00;87.79
3812;BME280;1921;49.368;11.068;2022-12-15T13:44:44;96689.16;;;-1.00;85.66
3812;BME280;1921;49.368;11.068;2022-12-15T13:50:11;96740.53;;;-0.61;88.18
3812;BME280;1921;49.368;11.068;2022-12-15T13:52:52;96735.00;;;-0.57;85.00
3812;BME280;1921;49.368;11.068;2022-12-15T13:55:25;96719.13;;;-0.91;85.94
3812;BME280;1921;49.368;11.068;2022-12-15T13:57:59;96695.78;;;-0.67;85.92
3812;BME280;1921;49.368;11.068;2022-12-15T14:00:28;96697.94;;;-0.62;85.15
3812;BME280;1921;49.368;11.068;2022-12-15T14:03:10;96637.25;;;-0.81;83.31
3812;BME280;1921;49.368;11.068;2022-12-15T14:05:38;96677.00;;;-0.77;85.13
3812;BME280;1921;49.368;11.068;2022-12-15T14:08:13;96691.19;;;-0.63;85.85
3812;BME280;1921;49.368;11.068;2022-12-15T14:10:54;96671.81;;;-0.56;85.60
3812;BME280;1921;49.368;11.068;2022-12-15T14:13:30;96665.97;;;-1.08;86.26
3812;BME280;1921;49.368;11.068;2022-12-15T14:16:01;96693.97;;;-1.16;88.43
3812;BME280;1921;49.368;11.068;2022-12-15T14:18:34;96714.13;;;-0.92;88.15
3812;BME280;1921;49.368;11.068;2022-12-15T14:21:05;96712.91;;;-0.98;87.61
3812;BME280;1921;49.368;11.068;2022-12-15T14:23:43;96701.00;;;-1.09;89.02
3812;BME280;1921;49.368;11.068;2022-12-15T14:26:11;96646.91;;;-1.25;89.09
3812;BME280;1921;49.368;11.068;2022-12-15T14:28:44;96695.34;;;-0.72;87.66
3812;BME280;1921;49.368;11.068;2022-12-15T14:31:20;96665.03;;;-0.76;87.26
3812;BME280;1921;49.368;11.068;2022-12-15T14:33:51;96659.75;;;-0.75;86.12
3812;BME280;1921;49.368;11.068;2022-12-15T14:36:19;96668.66;;;-0.79;86.51
3812;BME280;1921;49.368;11.068;2022-12-15T14:38:59;96725.22;;;-0.82;87.53
3812;BME280;1921;49.368;11.068;2022-12-15T14:41:30;96675.97;;;-1.05;86.87
3812;BME280;1921;49.368;11.068;2022-12-15T14:44:34;96733.75;;;-0.62;87.33
3812;BME280;1921;49.368;11.068;2022-12-15T14:46:51;96719.16;;;-0.41;86.25
3812;BME280;1921;49.368;11.068;2022-12-15T14:49:36;96687.81;;;-0.64;85.59
3812;BME280;1921;49.368;11.068;2022-12-15T14:52:05;96722.00;;;-0.34;85.62
3812;BME280;1921;49.368;11.068;2022-12-15T14:54:38;96649.72;;;-0.57;85.24
3812;BME280;1921;49.368;11.068;2022-12-15T14:57:29;96668.44;;;-0.57;84.66
3812;BME280;1921;49.368;11.068;2022-12-15T15:00:32;96665.78;;;-0.55;84.83
3812;BME280;1921;49.368;11.068;2022-12-15T15:03:17;96727.25;;;-0.36;85.05
3812;BME280;1921;49.368;11.068;2022-12-15T15:06:16;96662.59;;;-0.78;86.72
3812;BME280;1921;49.368;11.068;2022-12-15T15:08:49;96724.22;;;-0.60;87.92
3812;BME280;1921;49.368;11.068;2022-12-15T15:14:15;96696.97;;;-1.01;89.50
3812;BME280;1921;49.368;11.068;2022-12-15T15:16:42;96611.19;;;-1.87;92.64
3812;BME280;1921;49.368;11.068;2022-12-15T15:19:20;96629.91;;;-1.66;93.24
3812;BME280;1921;49.368;11.068;2022-12-15T15:21:47;96618.94;;;-1.78;93.58
3812;BME280;1921;49.368;11.068;2022-12-15T15:26:39;96627.03;;;-1.73;94.02
3812;BME280;1921;49.368;11.068;2022-12-15T15:29:39;96611.22;;;-1.67;92.90
3812;BME280;1921;49.368;11.068;2022-12-15T15:32:15;96604.41;;;-1.77;93.63
3812;BME280;1921;49.368;11.068;2022-12-15T15:34:43;96612.16;;;-1.68;92.22
3812;BME280;1921;49.368;11.068;2022-12-15T15:37:23;96663.47;;;-1.29;91.69
3812;BME280;1921;49.368;11.068;2022-12-15T15:39:51;96602.25;;;-1.51;91.21
3812;BME280;1921;49.368;11.068;2022-12-15T15:42:18;96612.19;;;-1.27;90.82
3812;BME280;1921;49.368;11.068;2022-12-15T15:44:44;96686.88;;;-0.72;90.77
3812;BME280;1921;49.368;11.068;2022-12-15T15:47:26;96648.00;;;-0.87;88.88
3812;BME280;1921;49.368;11.068;2022-12-15T15:49:53;96691.84;;;-0.71;88.89